createdAt,value
2023-03-20T00:04:31.484Z,101642.34
2023-03-20T00:09:28.340Z,101639.06
2023-03-20T00:14:25.210Z,101641.25
2023-03-20T00:19:24.443Z,101641.75
2023-03-20T00:24:21.578Z,101640.13
2023-03-20T00:29:23.254Z,101637.91
2023-03-20T00:34:23.605Z,101634.16
2023-03-20T00:39:20.430Z,101629.53
2023-03-20T00:44:25.796Z,101633.09
2023-03-20T00:49:27.907Z,101634.19
2023-03-20T00:54:24.719Z,101633.09
2023-03-20T00:59:25.565Z,101627.13
2023-03-20T01:04:22.397Z,101632.91
2023-03-20T01:09:18.774Z,101638.00
2023-03-20T01:14:16.056Z,101632.59
2023-03-20T01:19:14.014Z,101635.81
2023-03-20T01:24:10.467Z,101640.75
2023-03-20T01:29:21.418Z,101633.09
2023-03-20T01:34:36.468Z,101630.91
2023-03-20T01:39:36.342Z,101627.16
2023-03-20T01:44:34.678Z,101633.16
2023-03-20T01:50:08.609Z,101637.47
2023-03-20T01:55:05.293Z,101635.34
2023-03-20T02:00:10.229Z,101638.91
2023-03-20T02:05:15.760Z,101643.78
2023-03-20T02:10:16.343Z,101639.78
2023-03-20T02:15:15.934Z,101639.50
2023-03-20T02:20:45.082Z,101639.28
2023-03-20T02:25:51.857Z,101636.06
2023-03-20T02:31:01.903Z,101643.72
2023-03-20T02:36:25.467Z,101640.75
2023-03-20T02:41:45.791Z,101636.91
2023-03-20T02:47:21.646Z,101633.94
2023-03-20T02:52:43.874Z,101636.13
2023-03-20T02:57:58.332Z,101629.88
2023-03-20T03:03:18.885Z,101630.97
2023-03-20T03:08:20.541Z,101632.34
2023-03-20T03:13:21.805Z,101631.50
2023-03-20T03:18:22.494Z,101626.34
2023-03-20T03:23:26.806Z,101621.72
2023-03-20T03:28:31.582Z,101621.47
2023-03-20T03:33:33.618Z,101608.41
2023-03-20T03:38:35.741Z,101600.78
2023-03-20T03:43:40.054Z,101596.44
2023-03-20T03:48:47.520Z,101598.06
2023-03-20T03:53:58.006Z,101608.69
2023-03-20T03:59:04.219Z,101601.06
2023-03-20T04:04:04.921Z,101606.22
2023-03-20T04:09:01.520Z,101611.66
2023-03-20T04:13:57.950Z,101610.56
2023-03-20T04:18:56.108Z,101610.56
2023-03-20T04:23:52.541Z,101598.06
2023-03-20T04:28:49.023Z,101599.72
2023-03-20T04:33:45.974Z,101610.03
2023-03-20T04:38:42.478Z,101596.97
2023-03-20T04:43:40.256Z,101601.88
2023-03-20T04:48:36.672Z,101593.72
2023-03-20T04:53:33.114Z,101608.38
2023-03-20T04:58:29.627Z,101589.91
2023-03-20T05:03:27.666Z,101592.63
2023-03-20T05:08:24.124Z,101590.47
2023-03-20T05:13:20.605Z,101588.56
2023-03-20T05:18:17.096Z,101589.09
2023-03-20T05:23:13.514Z,101593.69
2023-03-20T05:28:10.130Z,101600.25
2023-03-20T05:33:08.045Z,101604.03
2023-03-20T05:38:04.562Z,101601.88
2023-03-20T05:43:01.082Z,101617.38
2023-03-20T05:47:57.502Z,101614.38
2023-03-20T05:52:53.944Z,101624.16
2023-03-20T05:57:50.368Z,101628.78
2023-03-20T06:02:47.674Z,101626.88
2023-03-20T06:07:44.347Z,101623.63
2023-03-20T06:12:40.765Z,101629.06
2023-03-20T06:17:37.208Z,101634.50
2023-03-20T06:22:33.677Z,101637.50
2023-03-20T06:27:31.250Z,101631.78
2023-03-20T06:32:27.706Z,101634.50
2023-03-20T06:37:24.434Z,101639.97
2023-03-20T06:42:21.020Z,101629.63
2023-03-20T06:47:17.557Z,101630.16
2023-03-20T06:52:19.452Z,101633.94
2023-03-20T06:57:17.638Z,101627.44
2023-03-20T07:02:14.099Z,101629.59
2023-03-20T07:07:10.885Z,101633.44
2023-03-20T07:12:14.379Z,101649.72
2023-03-20T07:17:11.612Z,101647.56
2023-03-20T07:22:15.404Z,101647.03
2023-03-20T07:27:12.291Z,101639.41
2023-03-20T07:32:08.767Z,101648.66
2023-03-20T07:37:05.629Z,101655.72
2023-03-20T07:42:02.205Z,101651.63
2023-03-20T07:46:58.648Z,101661.72
2023-03-20T07:51:55.136Z,101655.19
2023-03-20T07:56:51.740Z,101648.06
2023-03-20T08:01:48.173Z,101655.13
2023-03-20T08:06:44.724Z,101645.88
2023-03-20T08:11:41.132Z,101646.38
2023-03-20T08:16:37.794Z,101647.47
2023-03-20T08:21:34.295Z,101658.38
2023-03-20T08:26:31.021Z,101670.34
2023-03-20T08:31:27.656Z,101672.00
2023-03-20T08:36:24.597Z,101672.00
2023-03-20T08:41:21.002Z,101672.53
2023-03-20T08:46:17.435Z,101686.72
2023-03-20T08:51:13.889Z,101681.78
2023-03-20T08:56:10.319Z,101673.06
2023-03-20T09:01:08.398Z,101680.69
2023-03-20T09:06:07.444Z,101676.88
2023-03-20T09:11:05.088Z,101672.22
2023-03-20T09:16:01.492Z,101682.03
2023-03-20T09:20:58.366Z,101676.63
2023-03-20T09:25:54.928Z,101677.09
2023-03-20T09:30:56.188Z,101678.75
2023-03-20T09:35:52.763Z,101670.28
2023-03-20T09:41:03.930Z,101670.28
2023-03-20T09:46:23.411Z,101671.00
2023-03-20T09:51:36.358Z,101670.44
2023-03-20T09:56:33.458Z,101682.69
2023-03-20T10:01:47.458Z,101686.06
2023-03-20T10:06:46.412Z,101681.34
2023-03-20T10:12:21.038Z,101689.28
2023-03-20T10:17:41.885Z,101691.22
2023-03-20T10:22:44.776Z,101688.81
2023-03-20T10:27:51.901Z,101676.75
2023-03-20T10:32:54.357Z,101675.09
2023-03-20T10:37:56.410Z,101662.09
2023-03-20T10:42:59.064Z,101649.50
2023-03-20T10:47:58.646Z,101653.28
2023-03-20T10:52:57.016Z,101655.53
2023-03-20T10:58:08.963Z,101652.19
2023-03-20T11:03:06.540Z,101639.44
2023-03-20T11:08:11.717Z,101632.38
2023-03-20T11:13:29.615Z,101641.25
2023-03-20T11:18:26.342Z,101631.41
2023-03-20T11:23:33.435Z,101636.75
2023-03-20T11:28:47.560Z,101627.00
2023-03-20T11:33:51.446Z,101612.88
2023-03-20T11:38:50.502Z,101624.50
2023-03-20T11:43:46.927Z,101615.59
2023-03-20T11:48:48.120Z,101615.88
2023-03-20T11:53:48.242Z,101615.59
2023-03-20T11:59:11.751Z,101604.66
2023-03-20T12:04:11.135Z,101613.88
2023-03-20T12:09:36.446Z,101610.63
2023-03-20T12:14:54.821Z,101609.03
2023-03-20T12:19:54.794Z,101608.41
2023-03-20T12:25:02.546Z,101602.38
2023-03-20T12:30:04.798Z,101609.38
2023-03-20T12:35:10.369Z,101601.16
2023-03-20T12:40:15.539Z,101598.38
2023-03-20T12:45:30.876Z,101599.34
2023-03-20T12:50:39.973Z,101596.03
2023-03-20T12:55:48.580Z,101574.81
2023-03-20T13:00:53.765Z,101565.22
2023-03-20T13:06:04.222Z,101559.16
2023-03-20T13:11:26.084Z,101551.75
2023-03-20T13:17:01.067Z,101554.22
2023-03-20T13:22:14.640Z,101552.25
2023-03-20T13:27:16.778Z,101537.75
2023-03-20T13:32:25.896Z,101550.94
2023-03-20T13:37:56.781Z,101546.69
2023-03-20T13:43:26.339Z,101538.56
2023-03-20T13:48:40.262Z,101534.19
2023-03-20T13:53:46.244Z,101534.78
2023-03-20T13:58:56.279Z,101534.72
2023-03-20T14:03:54.094Z,101533.47
2023-03-20T14:08:54.459Z,101536.00
2023-03-20T14:13:55.514Z,101532.41
2023-03-20T14:19:06.511Z,101536.41
2023-03-20T14:24:15.536Z,101531.00
2023-03-20T14:29:11.941Z,101528.88
2023-03-20T14:34:11.634Z,101532.50
2023-03-20T14:39:20.923Z,101542.03
2023-03-20T14:44:38.435Z,101522.97
2023-03-20T14:49:48.781Z,101535.56
2023-03-20T14:54:55.122Z,101539.44
2023-03-20T14:59:51.523Z,101547.03
2023-03-20T15:04:48.497Z,101537.78
2023-03-20T15:09:47.804Z,101554.25
2023-03-20T15:14:51.165Z,101545.88
2023-03-20T15:19:50.006Z,101545.72
2023-03-20T15:24:55.654Z,101551.75
2023-03-20T15:29:54.662Z,101556.44
2023-03-20T15:34:51.147Z,101555.25
2023-03-20T15:39:51.480Z,101549.72
2023-03-20T15:44:50.099Z,101551.59
2023-03-20T15:49:53.272Z,101537.38
2023-03-20T15:54:49.979Z,101543.44
2023-03-20T15:59:46.599Z,101539.22
2023-03-20T16:04:47.973Z,101547.50
2023-03-20T16:09:44.512Z,101546.44
2023-03-20T16:14:41.406Z,101556.00
2023-03-20T16:19:39.029Z,101539.91
2023-03-20T16:24:38.645Z,101529.00
2023-03-20T16:29:36.966Z,101543.22
2023-03-20T16:34:36.181Z,101542.66
2023-03-20T16:39:33.106Z,101536.19
2023-03-20T16:44:35.330Z,101537.72
2023-03-20T16:49:54.187Z,101535.09
2023-03-20T16:54:50.998Z,101545.41
2023-03-20T16:59:47.758Z,101552.50
2023-03-20T17:04:47.543Z,101547.06
2023-03-20T17:10:16.634Z,101548.75
2023-03-20T17:15:18.713Z,101556.28
2023-03-20T17:20:42.583Z,101567.19
2023-03-20T17:25:39.230Z,101570.41
2023-03-20T17:30:36.149Z,101564.13
2023-03-20T17:35:32.793Z,101568.88
2023-03-20T17:40:30.815Z,101570.03
2023-03-20T17:45:27.693Z,101580.66
2023-03-20T17:50:26.825Z,101584.72
2023-03-20T17:55:23.242Z,101591.28
2023-03-20T18:00:23.037Z,101593.50
2023-03-20T18:05:19.900Z,101605.53
2023-03-20T18:10:25.244Z,101607.25
2023-03-20T18:15:21.693Z,101604.53
2023-03-20T18:20:30.996Z,101614.28
2023-03-20T18:25:28.393Z,101617.00
2023-03-20T18:30:29.914Z,101605.00
2023-03-20T18:35:26.607Z,101594.09
2023-03-20T18:40:32.442Z,101599.59
2023-03-20T18:45:30.790Z,101604.47
2023-03-20T18:50:37.755Z,101599.03
2023-03-20T18:55:36.086Z,101593.59
2023-03-20T19:00:40.505Z,101595.78
2023-03-20T19:05:37.526Z,101584.34
2023-03-20T19:10:36.504Z,101590.88
2023-03-20T19:15:36.482Z,101589.28
2023-03-20T19:20:38.934Z,101593.59
2023-03-20T19:25:37.532Z,101593.34
2023-03-20T19:30:39.320Z,101592.53
2023-03-20T19:35:58.875Z,101582.75
2023-03-20T19:40:53.612Z,101586.56
2023-03-20T19:45:56.469Z,101594.72
2023-03-20T19:50:57.071Z,101585.50
2023-03-20T19:55:54.636Z,101577.88
2023-03-20T20:00:59.751Z,101586.06
2023-03-20T20:05:56.755Z,101577.91
2023-03-20T20:10:54.143Z,101578.72
2023-03-20T20:15:51.134Z,101585.25
2023-03-20T20:21:28.816Z,101579.00
2023-03-20T20:26:09.411Z,101578.97
2023-03-20T20:31:08.388Z,101581.69
2023-03-20T20:36:57.652Z,101579.25
2023-03-20T20:41:29.465Z,101579.81
2023-03-20T20:46:26.438Z,101578.97
2023-03-20T20:51:23.110Z,101588.78
2023-03-20T20:56:19.573Z,101596.97
2023-03-20T21:01:16.105Z,101592.06
2023-03-20T21:06:13.234Z,101597.53
2023-03-20T21:11:12.966Z,101600.25
2023-03-20T21:16:09.493Z,101602.94
2023-03-20T21:21:11.209Z,101604.03
2023-03-20T21:26:09.434Z,101606.22
2023-03-20T21:31:23.896Z,101610.03
2023-03-20T21:36:23.394Z,101609.47
2023-03-20T21:41:20.300Z,101606.75
2023-03-20T21:57:42.694Z,101608.94
2023-03-20T22:02:16.838Z,101605.69
2023-03-20T22:18:28.746Z,101601.06
2023-03-20T22:34:24.138Z,101602.94
2023-03-20T22:49:31.034Z,101594.78
2023-03-20T22:54:27.440Z,101595.63
2023-03-20T22:59:23.884Z,101599.16
2023-03-20T23:04:20.693Z,101586.66
2023-03-20T23:09:17.212Z,101590.47
2023-03-20T23:14:21.341Z,101590.47
2023-03-20T23:19:18.313Z,101578.22
2023-03-20T23:24:14.776Z,101581.19
2023-03-20T23:29:11.572Z,101577.94
2023-03-20T23:34:08.021Z,101571.41
2023-03-20T23:39:06.109Z,101571.97
2023-03-20T23:44:03.101Z,101566.53
2023-03-20T23:48:59.621Z,101567.63
2023-03-20T23:53:57.384Z,101555.66
2023-03-20T23:58:59.586Z,101546.94
